sensor_id;sensor_type;location;lat;lon;timestamp;temperature;humidity
46037;DHT22;31769;49.304;8.428;2024-03-23T00:54:27;12.00;99.90
46037;DHT22;31769;49.304;8.428;2024-03-23T00:57:27;12.00;99.90
46037;DHT22;31769;49.304;8.428;2024-03-23T01:00:28;12.00;99.90
46037;DHT22;31769;49.304;8.428;2024-03-23T01:03:29;12.00;99.90
46037;DHT22;31769;49.304;8.428;2024-03-23T01:06:30;12.00;99.90
46037;DHT22;31769;49.304;8.428;2024-03-23T01:09:31;11.90;99.90
46037;DHT22;31769;49.304;8.428;2024-03-23T01:12:31;12.00;99.90
46037;DHT22;31769;49.304;8.428;2024-03-23T01:15:32;12.00;99.90
46037;DHT22;31769;49.304;8.428;2024-03-23T01:18:33;12.00;99.90
46037;DHT22;31769;49.304;8.428;2024-03-23T01:21:33;12.00;99.90
46037;DHT22;31769;49.304;8.428;2024-03-23T01:24:34;12.10;99.90
46037;DHT22;31769;49.304;8.428;2024-03-23T01:27:35;12.10;99.90
46037;DHT22;31769;49.304;8.428;2024-03-23T01:30:35;12.20;99.90
46037;DHT22;31769;49.304;8.428;2024-03-23T01:33:36;12.20;99.90
46037;DHT22;31769;49.304;8.428;2024-03-23T01:36:37;12.20;99.90
46037;DHT22;31769;49.304;8.428;2024-03-23T01:39:37;12.30;99.90
46037;DHT22;31769;49.304;8.428;2024-03-23T01:42:39;12.20;99.90
46037;DHT22;31769;49.304;8.428;2024-03-23T01:45:39;12.20;99.90
46037;DHT22;31769;49.304;8.428;2024-03-23T01:48:40;12.30;99.90
46037;DHT22;31769;49.304;8.428;2024-03-23T01:51:41;12.30;99.90
46037;DHT22;31769;49.304;8.428;2024-03-23T01:54:44;12.30;99.90
46037;DHT22;31769;49.304;8.428;2024-03-23T01:57:44;12.40;99.90
46037;DHT22;31769;49.304;8.428;2024-03-23T02:00:45;12.40;99.90
46037;DHT22;31769;49.304;8.428;2024-03-23T02:03:46;12.40;99.90
46037;DHT22;31769;49.304;8.428;2024-03-23T02:06:47;12.40;99.90
46037;DHT22;31769;49.304;8.428;2024-03-23T02:09:49;12.30;99.90
46037;DHT22;31769;49.304;8.428;2024-03-23T02:12:50;12.30;99.90
46037;DHT22;31769;49.304;8.428;2024-03-23T02:15:50;12.40;99.90
46037;DHT22;31769;49.304;8.428;2024-03-23T02:18:51;12.40;99.90
46037;DHT22;31769;49.304;8.428;2024-03-23T02:21:52;12.30;99.90
46037;DHT22;31769;49.304;8.428;2024-03-23T02:24:52;12.30;99.90
46037;DHT22;31769;49.304;8.428;2024-03-23T02:27:53;12.40;99.90
46037;DHT22;31769;49.304;8.428;2024-03-23T02:30:55;12.40;99.90
46037;DHT22;31769;49.304;8.428;2024-03-23T02:33:55;12.40;99.90
46037;DHT22;31769;49.304;8.428;2024-03-23T02:36:56;12.40;99.90
46037;DHT22;31769;49.304;8.428;2024-03-23T02:39:58;12.40;99.90
46037;DHT22;31769;49.304;8.428;2024-03-23T02:42:58;12.40;99.90
46037;DHT22;31769;49.304;8.428;2024-03-23T02:45:59;12.40;99.90
46037;DHT22;31769;49.304;8.428;2024-03-23T02:49:01;12.30;99.90
46037;DHT22;31769;49.304;8.428;2024-03-23T02:52:03;12.30;99.90
46037;DHT22;31769;49.304;8.428;2024-03-23T02:55:04;12.30;99.90
46037;DHT22;31769;49.304;8.428;2024-03-23T02:58:05;12.30;99.90
46037;DHT22;31769;49.304;8.428;2024-03-23T03:01:06;12.20;99.90
46037;DHT22;31769;49.304;8.428;2024-03-23T03:04:06;12.20;99.90
46037;DHT22;31769;49.304;8.428;2024-03-23T03:07:07;12.10;99.90
46037;DHT22;31769;49.304;8.428;2024-03-23T03:10:08;12.10;99.90
46037;DHT22;31769;49.304;8.428;2024-03-23T03:13:11;12.10;99.90
46037;DHT22;31769;49.304;8.428;2024-03-23T03:16:12;12.10;99.90
46037;DHT22;31769;49.304;8.428;2024-03-23T03:19:13;12.30;99.90
46037;DHT22;31769;49.304;8.428;2024-03-23T03:22:14;12.40;99.90
46037;DHT22;31769;49.304;8.428;2024-03-23T03:25:14;12.40;99.90
46037;DHT22;31769;49.304;8.428;2024-03-23T03:28:15;12.50;99.90
46037;DHT22;31769;49.304;8.428;2024-03-23T03:31:16;12.60;99.90
46037;DHT22;31769;49.304;8.428;2024-03-23T03:34:17;12.60;99.90
46037;DHT22;31769;49.304;8.428;2024-03-23T03:37:17;12.60;99.90
46037;DHT22;31769;49.304;8.428;2024-03-23T03:40:18;12.70;99.90
46037;DHT22;31769;49.304;8.428;2024-03-23T03:43:19;12.70;99.90
46037;DHT22;31769;49.304;8.428;2024-03-23T03:46:19;12.70;99.90
46037;DHT22;31769;49.304;8.428;2024-03-23T03:49:20;12.70;99.90
46037;DHT22;31769;49.304;8.428;2024-03-23T03:52:21;12.70;99.90
46037;DHT22;31769;49.304;8.428;2024-03-23T03:55:21;12.70;99.90
46037;DHT22;31769;49.304;8.428;2024-03-23T03:58:22;12.50;99.90
46037;DHT22;31769;49.304;8.428;2024-03-23T04:01:22;12.50;99.90
46037;DHT22;31769;49.304;8.428;2024-03-23T04:04:23;12.50;99.90
46037;DHT22;31769;49.304;8.428;2024-03-23T04:07:24;12.50;99.90
46037;DHT22;31769;49.304;8.428;2024-03-23T04:10:25;12.50;99.90
46037;DHT22;31769;49.304;8.428;2024-03-23T04:13:27;12.40;99.90
46037;DHT22;31769;49.304;8.428;2024-03-23T04:16:29;12.40;99.90
46037;DHT22;31769;49.304;8.428;2024-03-23T04:19:30;12.40;99.90
46037;DHT22;31769;49.304;8.428;2024-03-23T04:22:31;12.40;99.90
46037;DHT22;31769;49.304;8.428;2024-03-23T04:25:32;12.30;99.90
46037;DHT22;31769;49.304;8.428;2024-03-23T04:28:32;12.30;99.90
46037;DHT22;31769;49.304;8.428;2024-03-23T04:31:33;12.30;99.90
46037;DHT22;31769;49.304;8.428;2024-03-23T04:34:35;12.30;99.90
46037;DHT22;31769;49.304;8.428;2024-03-23T04:37:36;12.20;99.90
46037;DHT22;31769;49.304;8.428;2024-03-23T04:40:37;12.20;99.90
46037;DHT22;31769;49.304;8.428;2024-03-23T04:43:38;12.20;99.90
46037;DHT22;31769;49.304;8.428;2024-03-23T04:46:38;12.10;99.90
46037;DHT22;31769;49.304;8.428;2024-03-23T04:49:39;12.10;99.90
46037;DHT22;31769;49.304;8.428;2024-03-23T04:52:40;12.00;99.90
46037;DHT22;31769;49.304;8.428;2024-03-23T04:55:44;12.00;99.90
46037;DHT22;31769;49.304;8.428;2024-03-23T04:58:44;11.90;99.90
46037;DHT22;31769;49.304;8.428;2024-03-23T05:01:45;11.90;99.90
46037;DHT22;31769;49.304;8.428;2024-03-23T05:04:46;11.90;99.90
46037;DHT22;31769;49.304;8.428;2024-03-23T05:07:46;12.00;99.90
46037;DHT22;31769;49.304;8.428;2024-03-23T05:10:47;12.00;99.90
46037;DHT22;31769;49.304;8.428;2024-03-23T05:13:48;12.00;99.90
46037;DHT22;31769;49.304;8.428;2024-03-23T05:16:48;11.80;99.90
46037;DHT22;31769;49.304;8.428;2024-03-23T05:19:49;11.80;99.90
46037;DHT22;31769;49.304;8.428;2024-03-23T05:22:50;11.80;99.90
46037;DHT22;31769;49.304;8.428;2024-03-23T05:25:51;11.70;99.90
46037;DHT22;31769;49.304;8.428;2024-03-23T05:28:55;11.70;99.90
46037;DHT22;31769;49.304;8.428;2024-03-23T05:31:55;11.70;99.90
46037;DHT22;31769;49.304;8.428;2024-03-23T05:34:57;11.70;99.90
46037;DHT22;31769;49.304;8.428;2024-03-23T05:37:58;11.60;99.90
46037;DHT22;31769;49.304;8.428;2024-03-23T05:40:59;11.60;99.90
46037;DHT22;31769;49.304;8.428;2024-03-23T05:44:00;11.50;99.90
46037;DHT22;31769;49.304;8.428;2024-03-23T05:47:01;11.50;99.90
46037;DHT22;31769;49.304;8.428;2024-03-23T05:50:01;12.10;99.90
46037;DHT22;31769;49.304;8.428;2024-03-23T05:53:03;10.40;99.90
46037;DHT22;31769;49.304;8.428;2024-03-23T05:56:05;11.10;99.90
46037;DHT22;31769;49.304;8.428;2024-03-23T05:59:07;11.10;99.90
46037;DHT22;31769;49.304;8.428;2024-03-23T06:02:07;11.10;99.90
46037;DHT22;31769;49.304;8.428;2024-03-23T06:05:11;11.00;99.90
46037;DHT22;31769;49.304;8.428;2024-03-23T06:08:12;10.90;99.90
46037;DHT22;31769;49.304;8.428;2024-03-23T06:11:13;11.80;99.90
46037;DHT22;31769;49.304;8.428;2024-03-23T06:14:14;10.70;99.90
46037;DHT22;31769;49.304;8.428;2024-03-23T06:17:15;10.50;99.90
46037;DHT22;31769;49.304;8.428;2024-03-23T06:20:16;10.50;99.90
46037;DHT22;31769;49.304;8.428;2024-03-23T06:23:17;10.50;99.90
46037;DHT22;31769;49.304;8.428;2024-03-23T06:26:21;10.50;99.90
46037;DHT22;31769;49.304;8.428;2024-03-23T06:29:21;10.40;99.90
46037;DHT22;31769;49.304;8.428;2024-03-23T06:32:22;10.40;99.90
46037;DHT22;31769;49.304;8.428;2024-03-23T06:35:23;10.40;99.90
46037;DHT22;31769;49.304;8.428;2024-03-23T06:38:24;10.40;99.90
46037;DHT22;31769;49.304;8.428;2024-03-23T06:41:25;10.30;99.90
46037;DHT22;31769;49.304;8.428;2024-03-23T06:44:26;10.30;99.90
46037;DHT22;31769;49.304;8.428;2024-03-23T06:47:27;10.30;99.90
46037;DHT22;31769;49.304;8.428;2024-03-23T06:50:28;10.30;99.90
46037;DHT22;31769;49.304;8.428;2024-03-23T06:53:28;10.30;99.90
46037;DHT22;31769;49.304;8.428;2024-03-23T06:56:30;10.30;99.90
46037;DHT22;31769;49.304;8.428;2024-03-23T06:59:30;10.20;99.90
46037;DHT22;31769;49.304;8.428;2024-03-23T07:02:31;10.10;99.90
46037;DHT22;31769;49.304;8.428;2024-03-23T07:05:32;10.00;99.90
46037;DHT22;31769;49.304;8.428;2024-03-23T07:08:32;10.00;99.90
46037;DHT22;31769;49.304;8.428;2024-03-23T07:11:33;10.00;99.90
46037;DHT22;31769;49.304;8.428;2024-03-23T07:14:34;10.00;99.90
46037;DHT22;31769;49.304;8.428;2024-03-23T07:17:34;10.00;99.90
46037;DHT22;31769;49.304;8.428;2024-03-23T07:20:35;9.90;99.90
46037;DHT22;31769;49.304;8.428;2024-03-23T07:23:36;10.00;99.90
46037;DHT22;31769;49.304;8.428;2024-03-23T07:26:38;10.00;99.90
46037;DHT22;31769;49.304;8.428;2024-03-23T07:29:38;10.20;99.90
46037;DHT22;31769;49.304;8.428;2024-03-23T07:32:39;10.30;99.90
46037;DHT22;31769;49.304;8.428;2024-03-23T07:35:40;10.50;99.90
46037;DHT22;31769;49.304;8.428;2024-03-23T07:38:42;10.50;99.90
46037;DHT22;31769;49.304;8.428;2024-03-23T07:41:44;10.60;99.90
46037;DHT22;31769;49.304;8.428;2024-03-23T07:44:46;10.70;99.90
46037;DHT22;31769;49.304;8.428;2024-03-23T07:47:47;10.70;99.90
46037;DHT22;31769;49.304;8.428;2024-03-23T07:51:02;10.60;99.90
46037;DHT22;31769;49.304;8.428;2024-03-23T07:54:04;10.50;99.90
46037;DHT22;31769;49.304;8.428;2024-03-23T07:57:05;10.40;99.90
46037;DHT22;31769;49.304;8.428;2024-03-23T08:00:07;10.40;99.90
46037;DHT22;31769;49.304;8.428;2024-03-23T08:03:08;10.40;99.90
46037;DHT22;31769;49.304;8.428;2024-03-23T08:06:20;10.40;99.90
46037;DHT22;31769;49.304;8.428;2024-03-23T08:09:27;10.40;99.90
46037;DHT22;31769;49.304;8.428;2024-03-23T08:12:28;10.40;99.90
46037;DHT22;31769;49.304;8.428;2024-03-23T08:15:32;10.40;99.90
46037;DHT22;31769;49.304;8.428;2024-03-23T08:18:36;10.40;99.90
46037;DHT22;31769;49.304;8.428;2024-03-23T08:21:37;10.60;99.90
46037;DHT22;31769;49.304;8.428;2024-03-23T08:24:37;10.80;99.90
46037;DHT22;31769;49.304;8.428;2024-03-23T08:27:38;10.80;99.90
46037;DHT22;31769;49.304;8.428;2024-03-23T08:30:39;10.80;99.90
46037;DHT22;31769;49.304;8.428;2024-03-23T08:33:39;10.80;99.90
46037;DHT22;31769;49.304;8.428;2024-03-23T08:36:40;10.90;99.90
46037;DHT22;31769;49.304;8.428;2024-03-23T08:39:45;11.10;99.90
46037;DHT22;31769;49.304;8.428;2024-03-23T08:42:45;11.10;99.90
46037;DHT22;31769;49.304;8.428;2024-03-23T08:45:46;11.20;99.90
46037;DHT22;31769;49.304;8.428;2024-03-23T08:48:47;11.20;99.90
46037;DHT22;31769;49.304;8.428;2024-03-23T08:51:49;11.10;99.90
46037;DHT22;31769;49.304;8.428;2024-03-23T08:54:49;11.10;99.90
46037;DHT22;31769;49.304;8.428;2024-03-23T08:57:50;11.20;99.90
46037;DHT22;31769;49.304;8.428;2024-03-23T09:00:52;11.20;99.90
46037;DHT22;31769;49.304;8.428;2024-03-23T09:03:52;11.20;99.90
46037;DHT22;31769;49.304;8.428;2024-03-23T09:06:53;11.30;99.90
46037;DHT22;31769;49.304;8.428;2024-03-23T09:09:54;11.40;99.90
46037;DHT22;31769;49.304;8.428;2024-03-23T09:12:54;11.40;99.90
46037;DHT22;31769;49.304;8.428;2024-03-23T09:15:55;11.60;99.90
46037;DHT22;31769;49.304;8.428;2024-03-23T09:18:57;11.50;99.90
46037;DHT22;31769;49.304;8.428;2024-03-23T09:21:57;11.40;99.90
46037;DHT22;31769;49.304;8.428;2024-03-23T09:24:58;11.40;99.90
46037;DHT22;31769;49.304;8.428;2024-03-23T09:27:59;11.40;99.90
46037;DHT22;31769;49.304;8.428;2024-03-23T09:31:03;11.50;99.90
46037;DHT22;31769;49.304;8.428;2024-03-23T09:34:04;11.50;99.90
46037;DHT22;31769;49.304;8.428;2024-03-23T09:37:05;11.30;99.90
46037;DHT22;31769;49.304;8.428;2024-03-23T09:40:09;11.20;99.90
46037;DHT22;31769;49.304;8.428;2024-03-23T09:43:10;11.10;99.90
46037;DHT22;31769;49.304;8.428;2024-03-23T09:46:11;11.00;99.90
46037;DHT22;31769;49.304;8.428;2024-03-23T09:49:12;11.00;99.90
46037;DHT22;31769;49.304;8.428;2024-03-23T09:52:13;11.00;99.90
46037;DHT22;31769;49.304;8.428;2024-03-23T09:55:14;11.00;99.90
46037;DHT22;31769;49.304;8.428;2024-03-23T09:58:18;11.00;99.90
46037;DHT22;31769;49.304;8.428;2024-03-23T10:01:19;11.20;99.90
46037;DHT22;31769;49.304;8.428;2024-03-23T10:04:40;11.60;99.90
46037;DHT22;31769;49.304;8.428;2024-03-23T10:07:41;11.90;99.90
46037;DHT22;31769;49.304;8.428;2024-03-23T10:10:42;12.00;99.90
46037;DHT22;31769;49.304;8.428;2024-03-23T10:13:44;11.90;99.90
46037;DHT22;31769;49.304;8.428;2024-03-23T10:16:46;11.80;99.90
46037;DHT22;31769;49.304;8.428;2024-03-23T10:19:49;11.80;99.90
46037;DHT22;31769;49.304;8.428;2024-03-23T10:22:50;11.90;99.90
46037;DHT22;31769;49.304;8.428;2024-03-23T10:26:16;12.00;99.90
46037;DHT22;31769;49.304;8.428;2024-03-23T10:29:17;12.20;99.90
46037;DHT22;31769;49.304;8.428;2024-03-23T10:32:18;12.40;99.90
46037;DHT22;31769;49.304;8.428;2024-03-23T10:35:20;12.30;98.70
46037;DHT22;31769;49.304;8.428;2024-03-23T10:38:24;12.00;97.80
46037;DHT22;31769;49.304;8.428;2024-03-23T10:41:27;12.00;98.70
46037;DHT22;31769;49.304;8.428;2024-03-23T10:44:29;12.10;97.80
46037;DHT22;31769;49.304;8.428;2024-03-23T10:47:34;12.20;97.80
46037;DHT22;31769;49.304;8.428;2024-03-23T10:50:35;12.40;98.90
46037;DHT22;31769;49.304;8.428;2024-03-23T10:53:35;12.70;98.70
46037;DHT22;31769;49.304;8.428;2024-03-23T10:56:40;12.90;96.70
46037;DHT22;31769;49.304;8.428;2024-03-23T10:59:41;12.80;97.10
46037;DHT22;31769;49.304;8.428;2024-03-23T11:02:42;12.70;94.20
46037;DHT22;31769;49.304;8.428;2024-03-23T11:05:52;12.50;93.70
46037;DHT22;31769;49.304;8.428;2024-03-23T11:08:52;12.50;93.20
46037;DHT22;31769;49.304;8.428;2024-03-23T11:11:53;12.50;91.90
46037;DHT22;31769;49.304;8.428;2024-03-23T11:18:03;12.60;92.00
46037;DHT22;31769;49.304;8.428;2024-03-23T11:21:06;13.00;92.20
46037;DHT22;31769;49.304;8.428;2024-03-23T11:24:14;13.40;90.00
46037;DHT22;31769;49.304;8.428;2024-03-23T11:27:18;13.30;90.50
46037;DHT22;31769;49.304;8.428;2024-03-23T11:33:23;13.10;91.20
46037;DHT22;31769;49.304;8.428;2024-03-23T11:36:24;13.20;90.80
46037;DHT22;31769;49.304;8.428;2024-03-23T11:39:25;13.20;91.40
46037;DHT22;31769;49.304;8.428;2024-03-23T11:42:26;13.40;90.80
46037;DHT22;31769;49.304;8.428;2024-03-23T11:45:27;13.70;91.50
46037;DHT22;31769;49.304;8.428;2024-03-23T11:48:29;13.20;91.30
46037;DHT22;31769;49.304;8.428;2024-03-23T11:51:30;13.20;91.40
46037;DHT22;31769;49.304;8.428;2024-03-23T11:54:35;13.00;92.80
46037;DHT22;31769;49.304;8.428;2024-03-23T11:57:35;13.00;93.20
46037;DHT22;31769;49.304;8.428;2024-03-23T12:00:36;12.60;92.30
46037;DHT22;31769;49.304;8.428;2024-03-23T12:03:37;12.20;93.60
46037;DHT22;31769;49.304;8.428;2024-03-23T12:06:38;12.20;93.60
46037;DHT22;31769;49.304;8.428;2024-03-23T12:09:39;12.10;96.80
46037;DHT22;31769;49.304;8.428;2024-03-23T12:12:40;11.70;99.80
46037;DHT22;31769;49.304;8.428;2024-03-23T12:15:40;11.50;99.90
46037;DHT22;31769;49.304;8.428;2024-03-23T12:18:47;11.40;99.90
46037;DHT22;31769;49.304;8.428;2024-03-23T12:21:48;11.20;99.90
46037;DHT22;31769;49.304;8.428;2024-03-23T12:24:50;11.40;99.90
46037;DHT22;31769;49.304;8.428;2024-03-23T12:27:51;11.60;99.90
46037;DHT22;31769;49.304;8.428;2024-03-23T12:30:52;13.10;99.90
46037;DHT22;31769;49.304;8.428;2024-03-23T12:33:54;13.90;96.80
46037;DHT22;31769;49.304;8.428;2024-03-23T12:36:55;13.20;97.40
46037;DHT22;31769;49.304;8.428;2024-03-23T12:39:56;12.50;96.90
46037;DHT22;31769;49.304;8.428;2024-03-23T12:42:57;12.40;96.90
46037;DHT22;31769;49.304;8.428;2024-03-23T12:45:57;12.10;96.80
46037;DHT22;31769;49.304;8.428;2024-03-23T12:48:58;11.60;97.20
46037;DHT22;31769;49.304;8.428;2024-03-23T12:52:00;11.10;99.30
46037;DHT22;31769;49.304;8.428;2024-03-23T12:55:02;10.90;99.50
46037;DHT22;31769;49.304;8.428;2024-03-23T12:58:04;10.60;99.90
46037;DHT22;31769;49.304;8.428;2024-03-23T13:01:05;9.20;99.90
46037;DHT22;31769;49.304;8.428;2024-03-23T13:04:06;7.80;99.90
46037;DHT22;31769;49.304;8.428;2024-03-23T13:07:07;7.10;99.90
46037;DHT22;31769;49.304;8.428;2024-03-23T13:10:08;7.30;99.90
46037;DHT22;31769;49.304;8.428;2024-03-23T13:13:09;8.10;99.90
46037;DHT22;31769;49.304;8.428;2024-03-23T13:16:10;9.50;99.90
46037;DHT22;31769;49.304;8.428;2024-03-23T13:19:10;9.60;99.90
46037;DHT22;31769;49.304;8.428;2024-03-23T13:22:11;9.50;99.90
46037;DHT22;31769;49.304;8.428;2024-03-23T13:25:12;9.50;99.90
46037;DHT22;31769;49.304;8.428;2024-03-23T13:28:13;9.70;99.90
46037;DHT22;31769;49.304;8.428;2024-03-23T13:31:13;10.60;99.90
46037;DHT22;31769;49.304;8.428;2024-03-23T13:34:14;11.00;99.90
46037;DHT22;31769;49.304;8.428;2024-03-23T13:37:15;10.70;99.90
46037;DHT22;31769;49.304;8.428;2024-03-23T13:40:16;12.40;99.90
46037;DHT22;31769;49.304;8.428;2024-03-23T13:43:17;16.00;99.90
46037;DHT22;31769;49.304;8.428;2024-03-23T13:46:18;18.40;96.60
46037;DHT22;31769;49.304;8.428;2024-03-23T13:49:26;19.30;90.40
46037;DHT22;31769;49.304;8.428;2024-03-23T13:52:27;20.10;82.70
46037;DHT22;31769;49.304;8.428;2024-03-23T13:55:28;21.40;74.30
46037;DHT22;31769;49.304;8.428;2024-03-23T13:58:29;21.80;68.80
46037;DHT22;31769;49.304;8.428;2024-03-23T14:01:29;21.50;67.70
46037;DHT22;31769;49.304;8.428;2024-03-23T14:04:30;22.50;66.20
46037;DHT22;31769;49.304;8.428;2024-03-23T14:07:30;20.00;68.70
46037;DHT22;31769;49.304;8.428;2024-03-23T14:10:31;19.10;71.80
46037;DHT22;31769;49.304;8.428;2024-03-23T14:13:32;18.60;73.80
46037;DHT22;31769;49.304;8.428;2024-03-23T14:16:33;17.60;78.90
46037;DHT22;31769;49.304;8.428;2024-03-23T14:19:34;18.30;75.80
46037;DHT22;31769;49.304;8.428;2024-03-23T14:22:34;20.00;72.80
46037;DHT22;31769;49.304;8.428;2024-03-23T14:25:35;20.50;70.10
46037;DHT22;31769;49.304;8.428;2024-03-23T14:28:37;21.50;66.90
46037;DHT22;31769;49.304;8.428;2024-03-23T14:31:38;21.00;65.90
46037;DHT22;31769;49.304;8.428;2024-03-23T14:34:38;19.60;68.10
46037;DHT22;31769;49.304;8.428;2024-03-23T14:37:39;17.90;71.90
46037;DHT22;31769;49.304;8.428;2024-03-23T14:40:42;15.90;77.30
46037;DHT22;31769;49.304;8.428;2024-03-23T14:43:43;15.10;79.90
46037;DHT22;31769;49.304;8.428;2024-03-23T14:46:44;13.40;85.50
46037;DHT22;31769;49.304;8.428;2024-03-23T14:49:45;13.70;86.40
46037;DHT22;31769;49.304;8.428;2024-03-23T14:52:50;15.10;83.70
46037;DHT22;31769;49.304;8.428;2024-03-23T14:55:54;16.80;78.20
46037;DHT22;31769;49.304;8.428;2024-03-23T14:58:55;18.20;75.30
46037;DHT22;31769;49.304;8.428;2024-03-23T15:01:56;16.80;75.80
46037;DHT22;31769;49.304;8.428;2024-03-23T15:04:58;16.90;76.30
46037;DHT22;31769;49.304;8.428;2024-03-23T15:07:58;17.40;74.80
46037;DHT22;31769;49.304;8.428;2024-03-23T15:11:00;18.20;70.40
46037;DHT22;31769;49.304;8.428;2024-03-23T15:14:01;16.60;72.20
46037;DHT22;31769;49.304;8.428;2024-03-23T15:17:02;15.30;76.00
46037;DHT22;31769;49.304;8.428;2024-03-23T15:20:08;14.10;77.50
46037;DHT22;31769;49.304;8.428;2024-03-23T15:23:08;13.10;79.50
46037;DHT22;31769;49.304;8.428;2024-03-23T15:26:09;12.40;85.10
46037;DHT22;31769;49.304;8.428;2024-03-23T15:29:10;11.90;88.40
46037;DHT22;31769;49.304;8.428;2024-03-23T15:32:12;11.40;91.50
46037;DHT22;31769;49.304;8.428;2024-03-23T15:35:14;10.90;92.90
46037;DHT22;31769;49.304;8.428;2024-03-23T15:38:15;10.50;95.40
46037;DHT22;31769;49.304;8.428;2024-03-23T15:41:16;10.30;97.50
46037;DHT22;31769;49.304;8.428;2024-03-23T15:44:16;9.20;99.90
46037;DHT22;31769;49.304;8.428;2024-03-23T15:47:17;7.40;99.90
46037;DHT22;31769;49.304;8.428;2024-03-23T15:50:19;6.10;99.90
46037;DHT22;31769;49.304;8.428;2024-03-23T15:53:23;5.50;99.90
46037;DHT22;31769;49.304;8.428;2024-03-23T15:56:24;5.30;99.90
46037;DHT22;31769;49.304;8.428;2024-03-23T15:59:25;5.20;99.90
46037;DHT22;31769;49.304;8.428;2024-03-23T16:02:26;5.60;99.90
46037;DHT22;31769;49.304;8.428;2024-03-23T16:05:28;6.20;99.90
46037;DHT22;31769;49.304;8.428;2024-03-23T16:08:29;6.40;99.90
46037;DHT22;31769;49.304;8.428;2024-03-23T16:11:30;6.50;99.90
46037;DHT22;31769;49.304;8.428;2024-03-23T16:14:31;6.70;99.90
46037;DHT22;31769;49.304;8.428;2024-03-23T16:17:32;8.60;99.90
46037;DHT22;31769;49.304;8.428;2024-03-23T16:20:35;11.40;99.90
46037;DHT22;31769;49.304;8.428;2024-03-23T16:23:37;13.70;99.90
46037;DHT22;31769;49.304;8.428;2024-03-23T16:26:38;14.70;99.90
46037;DHT22;31769;49.304;8.428;2024-03-23T16:29:38;13.80;99.90
46037;DHT22;31769;49.304;8.428;2024-03-23T16:32:39;13.30;99.90
46037;DHT22;31769;49.304;8.428;2024-03-23T16:35:40;10.90;99.90
46037;DHT22;31769;49.304;8.428;2024-03-23T16:38:41;9.50;99.90
46037;DHT22;31769;49.304;8.428;2024-03-23T16:41:42;8.70;99.90
46037;DHT22;31769;49.304;8.428;2024-03-23T16:44:43;8.20;99.90
46037;DHT22;31769;49.304;8.428;2024-03-23T16:47:43;7.70;99.90
46037;DHT22;31769;49.304;8.428;2024-03-23T16:50:45;7.60;99.90
46037;DHT22;31769;49.304;8.428;2024-03-23T16:53:46;7.40;99.90
46037;DHT22;31769;49.304;8.428;2024-03-23T16:56:47;7.10;99.90
46037;DHT22;31769;49.304;8.428;2024-03-23T16:59:47;6.70;99.90
46037;DHT22;31769;49.304;8.428;2024-03-23T17:02:48;6.40;99.90
46037;DHT22;31769;49.304;8.428;2024-03-23T17:05:49;6.30;99.90
46037;DHT22;31769;49.304;8.428;2024-03-23T17:08:51;6.20;99.90
46037;DHT22;31769;49.304;8.428;2024-03-23T17:11:52;6.20;99.90
46037;DHT22;31769;49.304;8.428;2024-03-23T17:14:53;6.30;99.90
46037;DHT22;31769;49.304;8.428;2024-03-23T17:17:53;6.20;99.90
46037;DHT22;31769;49.304;8.428;2024-03-23T17:20:55;6.10;99.90
46037;DHT22;31769;49.304;8.428;2024-03-23T17:23:55;6.00;99.90
46037;DHT22;31769;49.304;8.428;2024-03-23T17:26:57;6.00;99.90
46037;DHT22;31769;49.304;8.428;2024-03-23T17:29:58;5.50;99.90
46037;DHT22;31769;49.304;8.428;2024-03-23T17:32:59;5.80;99.90
46037;DHT22;31769;49.304;8.428;2024-03-23T17:36:02;5.80;99.90
46037;DHT22;31769;49.304;8.428;2024-03-23T17:39:03;5.70;99.90
46037;DHT22;31769;49.304;8.428;2024-03-23T17:42:04;5.60;99.90
46037;DHT22;31769;49.304;8.428;2024-03-23T17:45:06;5.50;99.90
46037;DHT22;31769;49.304;8.428;2024-03-23T17:48:11;5.50;99.90
46037;DHT22;31769;49.304;8.428;2024-03-23T17:51:11;5.50;99.90
46037;DHT22;31769;49.304;8.428;2024-03-23T17:54:13;5.40;99.90
46037;DHT22;31769;49.304;8.428;2024-03-23T17:57:14;5.40;99.90
46037;DHT22;31769;49.304;8.428;2024-03-23T18:00:15;5.50;99.90
46037;DHT22;31769;49.304;8.428;2024-03-23T18:03:15;5.40;99.90
46037;DHT22;31769;49.304;8.428;2024-03-23T18:06:16;5.50;99.90
46037;DHT22;31769;49.304;8.428;2024-03-23T18:09:17;5.50;99.90
46037;DHT22;31769;49.304;8.428;2024-03-23T18:12:18;5.40;99.90
46037;DHT22;31769;49.304;8.428;2024-03-23T18:15:20;5.50;99.90
46037;DHT22;31769;49.304;8.428;2024-03-23T18:18:21;5.40;99.90
46037;DHT22;31769;49.304;8.428;2024-03-23T18:21:21;5.40;99.90
46037;DHT22;31769;49.304;8.428;2024-03-23T18:24:22;5.40;99.90
46037;DHT22;31769;49.304;8.428;2024-03-23T18:27:23;5.40;99.90
46037;DHT22;31769;49.304;8.428;2024-03-23T18:30:27;5.40;99.90
46037;DHT22;31769;49.304;8.428;2024-03-23T18:33:34;5.50;99.90
46037;DHT22;31769;49.304;8.428;2024-03-23T18:36:36;5.50;99.90
46037;DHT22;31769;49.304;8.428;2024-03-23T18:39:37;5.40;99.90
46037;DHT22;31769;49.304;8.428;2024-03-23T18:42:37;5.40;99.90
46037;DHT22;31769;49.304;8.428;2024-03-23T18:45:59;5.40;99.90
46037;DHT22;31769;49.304;8.428;2024-03-23T18:49:00;5.40;99.90
46037;DHT22;31769;49.304;8.428;2024-03-23T18:52:04;5.30;99.90
46037;DHT22;31769;49.304;8.428;2024-03-23T18:55:05;5.30;99.90
46037;DHT22;31769;49.304;8.428;2024-03-23T18:58:06;5.30;99.90
46037;DHT22;31769;49.304;8.428;2024-03-23T19:01:07;5.20;99.90
46037;DHT22;31769;49.304;8.428;2024-03-23T19:04:08;5.30;99.90
46037;DHT22;31769;49.304;8.428;2024-03-23T19:07:10;5.20;99.90
46037;DHT22;31769;49.304;8.428;2024-03-23T19:10:10;5.30;99.90
46037;DHT22;31769;49.304;8.428;2024-03-23T19:13:11;5.30;99.90
46037;DHT22;31769;49.304;8.428;2024-03-23T19:16:11;5.20;99.90
46037;DHT22;31769;49.304;8.428;2024-03-23T19:19:12;5.20;99.90
46037;DHT22;31769;49.304;8.428;2024-03-23T19:22:13;5.20;99.90
46037;DHT22;31769;49.304;8.428;2024-03-23T19:25:13;5.20;99.90
46037;DHT22;31769;49.304;8.428;2024-03-23T19:28:14;5.10;99.90
46037;DHT22;31769;49.304;8.428;2024-03-23T19:31:15;5.20;99.90
46037;DHT22;31769;49.304;8.428;2024-03-23T19:34:16;5.20;99.90
46037;DHT22;31769;49.304;8.428;2024-03-23T19:37:17;5.20;99.90
46037;DHT22;31769;49.304;8.428;2024-03-23T19:40:18;5.10;99.90
46037;DHT22;31769;49.304;8.428;2024-03-23T19:43:19;5.10;99.90
46037;DHT22;31769;49.304;8.428;2024-03-23T19:46:20;5.10;99.90
46037;DHT22;31769;49.304;8.428;2024-03-23T19:49:23;5.10;99.90
46037;DHT22;31769;49.304;8.428;2024-03-23T19:52:27;5.10;99.90
46037;DHT22;31769;49.304;8.428;2024-03-23T19:55:28;5.10;99.90
46037;DHT22;31769;49.304;8.428;2024-03-23T19:58:28;5.00;99.90
46037;DHT22;31769;49.304;8.428;2024-03-23T20:01:29;5.00;99.90
46037;DHT22;31769;49.304;8.428;2024-03-23T20:04:30;5.00;99.90
46037;DHT22;31769;49.304;8.428;2024-03-23T20:07:31;5.00;99.90
46037;DHT22;31769;49.304;8.428;2024-03-23T20:10:31;5.00;99.90